Oeiras do Para, Brazil
Current Conditions -  °F | °C
As of 1:00 AM on Wednesday 22 Oct 2014 (Local Time) from SBBE Reporting Station
Clear Clear  
Wind Chill: 79°   Ceiling: Unl
Heat Index: 82°   Visibility: 6mi
Dew Point: 73°   Wind: 9mph
Humidity: 83%   Direction: 40°NE
Pressure: NA   Gusts: NA
Location:  2°S, 49.85°W
Report Text: SBBE 220400Z 04008KT CAVOK 26/23 Q1101
Loading
Personal Weather Stations






























Interactive Weather Map
Tropical Storm Tracking
New forecast layout! Learn more

10-Day Weather Forecast

Advertisements
Track Severe Weather on mobile